Teresa — WDG9717 — position and weather

sailwx.info

Track history (hours):
 
Tides and Currents Weather Stations Pressure Air Temp Water Temp Dewpoint Dewpoint Depression Visibility Wind Speed Wind Dir Waves Ship Positions

Teresa

Owner: Kirby Offshore Marine, LLC, Staten Island, NY. More information available from US FCC via Universal Licensing System and Coast Guard Vessel Documentation Center.

Last reported at 2018-Jun-24 07:00 UTC. Time now 2018-Jun-24 07:15 UTC.
Position N 26°33' W 080°00'.

Length 181 m.

Type: . MMSI: 368133000.

Date/timePositionNaut miles runAvg speedWind from/ knotsBaromVisibWave heightAir tempDewpointWater temp
2018-Jun-24 07:00N 26°33' W 080°00'15 7.9
2018-Jun-24 05:07N 26°47' W 079°60'1 7.0
2018-Jun-24 04:59N 26°48' W 079°60'3 6.8
2018-Jun-24 04:30N 26°52' W 079°60'3 6.9
2018-Jun-24 04:00N 26°55' W 080°00'4 8.3
2018-Jun-24 03:30N 26°59' W 080°01'4 8.5
2018-Jun-24 03:00N 27°04' W 080°01'278 8.5
2018-Jun-22 18:22N 31°41' W 079°45'2510.3
2018-Jun-22 15:58N 32°02' W 079°30'151 9.1
2018-Jun-21 23:18N 34°11' W 077°57'  
2018-Jun-19 03:50N 27°04' W 080°00'310.3
2018-Jun-19 03:30N 27°00' W 079°60'510.0
2018-Jun-19 03:00N 26°55' W 079°59'611.0
2018-Jun-19 02:30N 26°50' W 079°58'6 8.7
2018-Jun-19 01:51N 26°46' W 080°03'0 0.0
2018-Jun-18 12:04N 26°46' W 080°03'0 2.2
2018-Jun-18 11:55N 26°46' W 080°03'2 5.0
2018-Jun-18 11:27N 26°47' W 080°00'4 1.7
2018-Jun-18 09:05N 26°45' W 079°56'0 0.7
2018-Jun-18 08:29N 26°46' W 079°56'15 5.5
2018-Jun-18 05:47N 26°31' W 079°56'4 7.3
2018-Jun-18 05:15N 26°27' W 079°57'5 7.0
2018-Jun-18 04:30N 26°22' W 079°58'4 7.0
2018-Jun-18 04:00N 26°18' W 079°58'4 8.1
2018-Jun-18 03:31N 26°14' W 079°59'4 8.4
2018-Jun-18 02:58N 26°10' W 080°01'612.1
2018-Jun-18 02:30N 26°05' W 080°04'3 5.3
2018-Jun-18 02:00N 26°06' W 080°07'0 0.2
2018-Jun-18 01:31N 26°06' W 080°07'0 0.0
2018-Jun-17 18:15N 26°06' W 080°07'0 0.0
2018-Jun-17 03:02N 26°06' W 080°07'0 0.0
2018-Jun-17 03:00N 26°06' W 080°07'0 0.8
2018-Jun-17 02:30N 26°06' W 080°07'4 7.5
2018-Jun-17 02:00N 26°06' W 080°03'3 6.0
2018-Jun-17 01:30N 26°03' W 080°00'2 3.8
2018-Jun-17 01:00N 26°02' W 079°59'2 4.9
2018-Jun-17 00:30N 25°59' W 079°59'0 0.8
2018-Jun-17 00:00N 25°60' W 079°59'0 0.9
2018-Jun-16 23:30N 25°60' W 079°60'1 1.0
2018-Jun-16 23:00N 26°00' W 080°00'3 6.0
2018-Jun-16 22:30N 25°57' W 079°60'510.7
2018-Jun-16 22:00N 25°52' W 079°59'612.5
2018-Jun-16 21:30N 25°46' W 079°59'612.5
2018-Jun-16 21:00N 25°39' W 079°60'612.1
2018-Jun-16 20:30N 25°33' W 079°60'611.9
2018-Jun-16 20:00N 25°27' W 079°60'  
Track history (hours):
 
Tides and Currents Weather Stations Pressure Air Temp Water Temp Dewpoint Dewpoint Depression Visibility Wind Speed Wind Dir Waves Ship Positions

Teresa

Owner: Kirby Offshore Marine, LLC, Staten Island, NY. More information available from US FCC via Universal Licensing System and Coast Guard Vessel Documentation Center.

Last reported at 2018-Jun-24 07:00 UTC. Time now 2018-Jun-24 07:15 UTC.
Position N 26°33' W 080°00'.

Length 181 m.

Type: . MMSI: 368133000.

Date/timePositionNaut miles runAvg speedWind from/ knotsBaromVisibWave heightAir tempDewpointWater temp
2018-Jun-24 07:00N 26°33' W 080°00'15 7.9
2018-Jun-24 05:07N 26°47' W 079°60'1 7.0
2018-Jun-24 04:59N 26°48' W 079°60'3 6.8
2018-Jun-24 04:30N 26°52' W 079°60'3 6.9
2018-Jun-24 04:00N 26°55' W 080°00'4 8.3
2018-Jun-24 03:30N 26°59' W 080°01'4 8.5
2018-Jun-24 03:00N 27°04' W 080°01'278 8.5
2018-Jun-22 18:22N 31°41' W 079°45'2510.3
2018-Jun-22 15:58N 32°02' W 079°30'151 9.1
2018-Jun-21 23:18N 34°11' W 077°57'  
2018-Jun-19 03:50N 27°04' W 080°00'310.3
2018-Jun-19 03:30N 27°00' W 079°60'510.0
2018-Jun-19 03:00N 26°55' W 079°59'611.0
2018-Jun-19 02:30N 26°50' W 079°58'6 8.7
2018-Jun-19 01:51N 26°46' W 080°03'0 0.0
2018-Jun-18 12:04N 26°46' W 080°03'0 2.2
2018-Jun-18 11:55N 26°46' W 080°03'2 5.0
2018-Jun-18 11:27N 26°47' W 080°00'4 1.7
2018-Jun-18 09:05N 26°45' W 079°56'0 0.7
2018-Jun-18 08:29N 26°46' W 079°56'15 5.5
2018-Jun-18 05:47N 26°31' W 079°56'4 7.3
2018-Jun-18 05:15N 26°27' W 079°57'5 7.0
2018-Jun-18 04:30N 26°22' W 079°58'4 7.0
2018-Jun-18 04:00N 26°18' W 079°58'4 8.1
2018-Jun-18 03:31N 26°14' W 079°59'4 8.4
2018-Jun-18 02:58N 26°10' W 080°01'612.1
2018-Jun-18 02:30N 26°05' W 080°04'3 5.3
2018-Jun-18 02:00N 26°06' W 080°07'0 0.2
2018-Jun-18 01:31N 26°06' W 080°07'0 0.0
2018-Jun-17 18:15N 26°06' W 080°07'0 0.0
2018-Jun-17 03:02N 26°06' W 080°07'0 0.0
2018-Jun-17 03:00N 26°06' W 080°07'0 0.8
2018-Jun-17 02:30N 26°06' W 080°07'4 7.5
2018-Jun-17 02:00N 26°06' W 080°03'3 6.0
2018-Jun-17 01:30N 26°03' W 080°00'2 3.8
2018-Jun-17 01:00N 26°02' W 079°59'2 4.9
2018-Jun-17 00:30N 25°59' W 079°59'0 0.8
2018-Jun-17 00:00N 25°60' W 079°59'0 0.9
2018-Jun-16 23:30N 25°60' W 079°60'1 1.0
2018-Jun-16 23:00N 26°00' W 080°00'3 6.0
2018-Jun-16 22:30N 25°57' W 079°60'510.7
2018-Jun-16 22:00N 25°52' W 079°59'612.5
2018-Jun-16 21:30N 25°46' W 079°59'612.5
2018-Jun-16 21:00N 25°39' W 079°60'612.1
2018-Jun-16 20:30N 25°33' W 079°60'611.9
2018-Jun-16 20:00N 25°27' W 079°60'  

Dump ship's entire track history